Balmville, New York
Current Conditions -  °F | °C
As of 4:45 PM on Saturday 20 Dec 2014 (Local Time) from KSWF Reporting Station
Overcast Overcast  
Wind Chill: 22°   Ceiling: 3000
Heat Index: 28°   Visibility: 10mi
Dew Point: 23°   Wind: 6mph
Humidity: 80%   Direction: NA
Pressure: 30.27"   Gusts: NA
Location:  41.5391°N, 74.0491°W
Report Text: KSWF 202145Z VRB05KT 10SM OVC030 M02/M05 A3027
Loading
Personal Weather Stations






























Interactive Weather Map New forecast layout! Learn more

10-Day Weather Forecast

Advertisements
Track Severe Weather on mobile